Time;durP1;ratioP1;P1;durP2;ratioP2;P2;SDS_P1;SDS_P2;PMS_P1;PMS_P2;Temp;Humidity;BMP_temperature;BMP_pressure;BME280_temperature;BME280_humidity;BME280_pressure;Samples;Min_cycle;Max_cycle;Signal;HPM_P1;HPM_P2
2021/12/19 09:40:21;;;;;;;13.67;4.67;;;7.70;99.90;;;;;;5168507;27;20324;-70
2021/12/19 09:42:51;;;;;;;19.60;4.50;;;7.80;99.90;;;;;;5146972;27;20487;-72
2021/12/19 09:45:18;;;;;;;18.73;4.00;;;7.80;99.90;;;;;;5165301;27;20087;-73
2021/12/19 09:47:44;;;;;;;18.53;4.00;;;7.90;99.90;;;;;;5149240;27;20054;-73
2021/12/19 09:50:10;;;;;;;18.60;4.57;;;7.90;99.90;;;;;;5150099;27;20045;-74
2021/12/19 09:52:37;;;;;;;20.73;5.33;;;7.90;99.90;;;;;;5149506;27;20140;-67
2021/12/19 09:55:04;;;;;;;21.67;4.37;;;8.00;99.90;;;;;;5167933;27;20103;-73
2021/12/19 09:57:29;;;;;;;12.97;3.33;;;8.10;99.90;;;;;;5149935;27;20080;-72
2021/12/19 09:59:55;;;;;;;13.60;4.43;;;8.10;99.90;;;;;;5149915;27;20034;-72
2021/12/19 10:02:21;;;;;;;18.63;4.27;;;8.20;99.90;;;;;;5148967;27;20034;-71
2021/12/19 10:04:47;;;;;;;16.73;4.47;;;8.20;99.90;;;;;;5148276;27;20472;-72
2021/12/19 10:07:14;;;;;;;14.63;3.90;;;8.20;99.90;;;;;;5148914;27;20087;-69
2021/12/19 10:10:13;;;;;;;18.03;5.20;;;8.30;99.90;;;;;;5147928;27;20046;-70
2021/12/19 10:15:26;;;;;;;16.60;3.60;;;8.40;99.90;;;;;;5167100;27;20161;-71
2021/12/19 10:17:59;;;;;;;;;;;8.40;99.90;;;;;;5147750;27;20376;-70
2021/12/19 10:20:24;;;;;;;9.97;2.73;;;8.40;99.90;;;;;;5147557;27;19923;-71
2021/12/19 10:22:51;;;;;;;11.80;2.77;;;8.40;99.90;;;;;;5148411;27;20148;-73
2021/12/19 10:25:24;;;;;;;9.57;3.40;;;8.40;99.90;;;;;;5149084;27;20046;-71
2021/12/19 10:27:53;;;;;;;18.07;4.47;;;8.50;99.90;;;;;;5148822;27;20042;-71
2021/12/19 10:30:28;;;;;;;15.53;3.73;;;8.50;99.90;;;;;;5167149;27;20049;-71
2021/12/19 10:33:05;;;;;;;17.37;3.70;;;8.60;99.90;;;;;;5167696;27;20042;-69
2021/12/19 10:35:39;;;;;;;21.03;3.60;;;8.60;99.90;;;;;;5147856;27;20030;-71
2021/12/19 10:38:11;;;;;;;13.50;2.60;;;8.50;99.90;;;;;;5148533;27;20035;-70
2021/12/19 10:40:37;;;;;;;10.30;3.23;;;8.50;99.90;;;;;;5148765;27;20057;-70
2021/12/19 10:43:04;;;;;;;13.43;3.57;;;8.50;99.90;;;;;;5166833;27;20046;-71
2021/12/19 10:45:43;;;;;;;12.83;5.90;;;8.50;99.90;;;;;;5148732;27;20070;-70
2021/12/19 10:48:18;;;;;;;14.43;3.13;;;8.60;99.90;;;;;;5148937;27;20452;-69
2021/12/19 10:50:47;;;;;;;17.53;4.53;;;8.60;99.90;;;;;;5139286;27;20424;-69
2021/12/19 10:53:15;;;;;;;16.40;3.53;;;8.70;99.90;;;;;;5153034;27;20038;-70
2021/12/19 10:55:43;;;;;;;10.97;2.60;;;8.70;99.90;;;;;;5134142;27;20051;-69
2021/12/19 10:58:56;;;;;;;11.23;2.87;;;8.80;99.90;;;;;;5133684;27;20488;-69
2021/12/19 11:01:32;;;;;;;13.90;3.70;;;8.80;99.90;;;;;;5088952;27;20081;-70
2021/12/19 11:04:02;;;;;;;16.47;4.87;;;8.90;99.90;;;;;;5133878;27;20031;-69
2021/12/19 11:06:31;;;;;;;20.50;5.83;;;8.90;99.90;;;;;;5152167;27;20111;-69
2021/12/19 11:09:00;;;;;;;17.80;4.13;;;8.90;99.90;;;;;;5134617;27;20088;-68
2021/12/19 11:11:47;;;;;;;13.43;3.47;;;8.90;99.90;;;;;;5133347;27;20521;-68
2021/12/19 11:14:17;;;;;;;8.73;2.70;;;9.00;99.90;;;;;;5134239;27;20116;-67
2021/12/19 11:16:43;;;;;;;8.23;2.40;;;9.00;99.90;;;;;;5134375;27;20443;-68
2021/12/19 11:19:10;;;;;;;12.40;2.70;;;9.10;99.90;;;;;;5132308;27;20051;-68
2021/12/19 11:21:37;;;;;;;13.43;2.67;;;9.10;99.90;;;;;;5133744;27;20051;-67
2021/12/19 11:24:09;;;;;;;14.37;2.40;;;9.20;99.90;;;;;;5133897;27;20062;-68
2021/12/19 11:26:37;;;;;;;12.57;2.17;;;9.20;99.90;;;;;;5132846;27;20130;-69
2021/12/19 11:29:04;;;;;;;14.40;3.07;;;9.20;99.90;;;;;;5133526;27;20074;-67
2021/12/19 11:31:34;;;;;;;16.50;3.10;;;9.20;99.90;;;;;;5132964;27;20081;-69
2021/12/19 11:34:17;;;;;;;14.47;2.90;;;9.20;99.90;;;;;;5150638;27;20058;-68
2021/12/19 11:36:48;;;;;;;13.40;2.97;;;9.20;99.90;;;;;;5133175;27;20138;-69
2021/12/19 11:39:15;;;;;;;14.80;3.23;;;9.20;99.90;;;;;;5131490;27;20165;-67
2021/12/19 11:42:00;;;;;;;16.23;3.47;;;9.20;99.90;;;;;;5132925;27;20042;-69
2021/12/19 11:44:35;;;;;;;22.53;3.40;;;9.30;99.90;;;;;;5132787;27;20039;-68
2021/12/19 11:47:06;;;;;;;12.93;2.70;;;9.30;99.90;;;;;;5132477;27;20042;-69
2021/12/19 11:49:34;;;;;;;18.10;3.77;;;9.30;99.90;;;;;;5132986;27;20078;-69
2021/12/19 11:52:24;;;;;;;13.73;2.83;;;9.30;99.90;;;;;;5152008;27;20054;-68
2021/12/19 11:55:15;;;;;;;15.73;3.60;;;9.40;99.90;;;;;;5132349;27;20678;-68
2021/12/19 11:57:42;;;;;;;22.00;3.30;;;9.40;99.90;;;;;;5132396;27;20050;-68
2021/12/19 12:00:28;;;;;;;16.80;3.13;;;9.40;99.90;;;;;;5132105;27;20046;-69
2021/12/19 12:03:12;;;;;;;16.73;3.07;;;9.40;99.90;;;;;;5131757;27;20170;-66
2021/12/19 12:05:39;;;;;;;16.60;3.20;;;9.40;99.90;;;;;;5151292;27;20073;-68
2021/12/19 12:08:05;;;;;;;12.30;2.77;;;9.40;99.90;;;;;;5132091;27;20058;-68
2021/12/19 12:10:53;;;;;;;17.97;3.83;;;9.40;99.90;;;;;;5129360;27;20051;-68
2021/12/19 12:13:30;;;;;;;15.73;3.33;;;9.40;99.90;;;;;;5130472;27;20158;-68
2021/12/19 12:16:09;;;;;;;14.50;3.13;;;9.40;99.90;;;;;;5111331;27;20063;-70
2021/12/19 12:18:37;;;;;;;17.27;4.17;;;9.50;99.90;;;;;;5111634;27;20047;-70
2021/12/19 12:21:23;;;;;;;15.10;2.63;;;9.50;99.90;;;;;;5111169;27;20039;-69
2021/12/19 12:24:12;;;;;;;15.80;2.67;;;9.50;99.90;;;;;;5130333;27;20039;-70
2021/12/19 12:26:55;;;;;;;14.53;3.57;;;9.40;99.90;;;;;;5110795;27;20043;-70
2021/12/19 12:29:22;;;;;;;15.30;2.97;;;9.40;99.90;;;;;;5111348;27;20054;-72
2021/12/19 12:31:47;;;;;;;15.30;3.80;;;9.40;99.90;;;;;;5111463;27;20054;-72
2021/12/19 12:34:15;;;;;;;17.63;3.33;;;9.40;99.90;;;;;;5111633;27;20039;-70
2021/12/19 12:36:41;;;;;;;23.90;4.07;;;9.40;99.90;;;;;;5111070;27;20047;-72
2021/12/19 12:39:15;;;;;;;20.00;3.67;;;9.50;99.90;;;;;;5129822;27;20363;-71
2021/12/19 12:44:18;;;;;;;20.17;4.28;;;9.40;99.90;;;;;;5129185;27;20047;-73
2021/12/19 12:46:44;;;;;;;16.45;4.10;;;9.40;99.90;;;;;;5111295;27;20051;-72
2021/12/19 12:49:15;;;;;;;14.93;2.93;;;9.40;99.90;;;;;;5110938;27;20082;-69
2021/12/19 12:51:49;;;;;;;22.70;6.72;;;9.50;99.90;;;;;;5111330;27;20530;-73
2021/12/19 12:54:24;;;;;;;12.80;3.63;;;9.50;99.90;;;;;;5111264;27;20039;-72
2021/12/19 12:56:52;;;;;;;25.73;4.27;;;9.40;99.90;;;;;;5110835;27;20051;-74
2021/12/19 12:59:23;;;;;;;14.70;3.93;;;9.40;99.90;;;;;;5111346;27;20047;-75
2021/12/19 13:01:54;;;;;;;27.20;4.50;;;9.40;99.90;;;;;;5111566;27;20039;-74
2021/12/19 13:04:23;;;;;;;20.95;3.83;;;9.30;99.90;;;;;;5128960;27;20039;-73
2021/12/19 13:07:04;;;;;;;16.07;3.13;;;9.20;99.90;;;;;;5111370;27;20043;-73
2021/12/19 13:09:49;;;;;;;15.60;4.00;;;9.20;99.90;;;;;;5110943;27;20086;-75
2021/12/19 13:12:18;;;;;;;22.10;7.27;;;9.20;99.90;;;;;;5110625;27;20125;-75
2021/12/19 13:15:05;;;;;;;30.70;9.50;;;9.20;99.90;;;;;;5110869;27;20134;-75
2021/12/19 13:17:36;;;;;;;19.23;4.47;;;9.20;99.90;;;;;;5128727;27;20050;-75
2021/12/19 13:20:10;;;;;;;21.52;4.65;;;9.20;99.90;;;;;;5110913;27;20108;-75
2021/12/19 13:22:39;;;;;;;20.97;3.37;;;9.20;99.90;;;;;;5114976;27;20487;-74
2021/12/19 13:25:08;;;;;;;25.87;3.80;;;9.30;99.90;;;;;;5149304;27;20042;-74
2021/12/19 13:27:36;;;;;;;17.10;4.03;;;9.40;99.90;;;;;;5129401;27;20089;-74
2021/12/19 13:30:15;;;;;;;13.03;3.57;;;9.40;99.90;;;;;;5131170;27;20134;-72
2021/12/19 13:32:43;;;;;;;18.70;3.97;;;9.50;99.90;;;;;;5130690;27;20535;-72
2021/12/19 13:35:15;;;;;;;14.73;2.87;;;9.50;99.90;;;;;;5131252;27;20046;-70
2021/12/19 13:37:53;;;;;;;21.87;3.53;;;9.40;99.90;;;;;;5131072;27;20076;-76
2021/12/19 13:40:20;;;;;;;17.23;3.67;;;9.50;99.90;;;;;;5130787;27;20129;-72
2021/12/19 13:43:11;;;;;;;20.43;3.10;;;9.50;99.90;;;;;;5149862;27;20054;-71
2021/12/19 13:45:43;;;;;;;18.30;2.80;;;9.50;99.90;;;;;;5130493;27;20047;-71
2021/12/19 13:48:30;;;;;;;16.77;4.20;;;9.60;99.90;;;;;;5149695;27;20111;-74
2021/12/19 13:51:12;;;;;;;21.97;4.03;;;9.60;99.90;;;;;;5131386;27;20379;-74
2021/12/19 13:53:47;;;;;;;16.57;3.43;;;9.60;99.90;;;;;;5130148;27;20133;-76
2021/12/19 13:56:18;;;;;;;14.80;4.00;;;9.60;99.90;;;;;;5131428;27;20054;-75
2021/12/19 13:58:45;;;;;;;19.00;4.15;;;9.70;99.90;;;;;;5131083;27;20498;-73
2021/12/19 14:01:17;;;;;;;21.73;4.33;;;9.70;99.90;;;;;;5149117;27;20051;-74
2021/12/19 14:03:55;;;;;;;15.45;3.47;;;9.60;99.90;;;;;;5130683;27;20042;-75
2021/12/19 14:06:32;;;;;;;24.63;6.90;;;9.60;99.90;;;;;;5131327;27;20053;-72
2021/12/19 14:09:21;;;;;;;18.93;4.63;;;9.60;99.90;;;;;;5130795;27;20065;-73
2021/12/19 14:11:55;;;;;;;17.37;5.70;;;9.70;99.90;;;;;;5130811;27;20078;-71
2021/12/19 14:14:27;;;;;;;19.20;5.40;;;9.70;99.90;;;;;;5129296;27;20043;-76
